CYMT - Chapais Airport

Pirep is a free, collaborative database of all public and private airports located within the United States. All pilots are welcome to contribute, edit, and improve any airport they have local knowledge about, no registration required.
Are you familiar with this airport? Help out other pilots by adding your local knowledge.
Uploaded photos will be licensed under a CC BY-SA 4.0 license. Please only upload photos you have the rights to use.
Tags
Public
Undocu­mented
METAR / TAF
Webcam
Edit Tags
Food
Camping
Lodging
Car Rental
Bicycles
Swimming
Golfing
Fishing
Hot Springs
Museum
Flying Clubs
Airpark
Upcoming Events
No upcoming events. Is anything happening here soon?
*
*
*

Where exactly on/near the airport is this event taking place?

Is there a webpage with more information for this event?

Who should be contacted for more information?

What is this event all about?

Repeat every
Description
Transient Parking
Fuel Location
Landing & Tie-down Fees
Crew Car Availability
Flying Clubs
WiFi Access
Airport Statistics
Location: Chibougamau, Quebec
Elevation: 1,270ft
Runway 05/23: 6,496ft
Runway 04/22: 6,496ft
Warning: This airport was imported from a non-authoritative source. It's public/private status may not be accurate.
Access: Open to the public
Current Weather — IFR
  • Weather data is strictly informational and not for flight planning purposes.
  • METAR
    2024-06-17 22:21:00 EDT
    Ceiling Wind Temperature Dewpoint Weather Visbility
    4,300ft 270° @ 6kt, gusts 15kt 71°F 68°F Heavy thunderstorm rain, mist 2SM
    Clouds: Scattered @ 2,100ft, Broken @ 4,300ft, Broken @ 5,500ft, Overcast @ 6,800ft
    Raw: CYMT 180221Z AUTO 27006G15KT 210V290 2SM +TSRA BR SCT021 BKN043 BKN055 OVC068 22/20 A2992 RMK VIS VRB 1 1/4-3 LTNG DIST E W PRESRR PCPN 9.4MM PAST HR SLP134 DENSITY ALT 2400FT
  • TAF
    2024-06-17 14:00:00 EDT – 2024-06-17 20:00:00 EDT
    Ceiling Wind Weather Visbility
    3,000ft 210° @ 10kt, gusts 20kt N/A 6SM
    Clouds: Broken @ 3,000ft
    Raw: TAF CYMT 171744Z 1718/1724 21010G20KT P6SM BKN030 TEMPO 1718/1724 BKN020 RMK FCST BASED ON AUTO OBS. NXT FCST BY 181200Z
  • TAF
    2024-06-17 14:00:00 EDT – 2024-06-17 20:00:00 EDT
    Ceiling Wind Weather Visbility
    2,000ft ° @ kt N/A SM
    Clouds: Broken @ 2,000ft
    Raw: TAF CYMT 171744Z 1718/1724 21010G20KT P6SM BKN030 TEMPO 1718/1724 BKN020 RMK FCST BASED ON AUTO OBS. NXT FCST BY 181200Z
Click/tap to add an annotation marker to the map
Direct links to live image URLs will be displayed inline on this page. URLs to separate webpages will be linked to.
URL:
Direct links to live image URLs will be displayed inline on this page. URLs to separate webpages will be linked to.
URL:
Comments
Leave a comment What was your experience like at this airport?